CheckWX is a tool to help pilots better visualize weather data.  It is not intended as a substitute for an official pre-flight weather briefing.

08:08:43 UTC

KIAG TAF
Niagara Falls International Airport
Niagara Falls, New York, USA
KIAG 230528Z 2306/2406 22011KT P6SM SKC WS020/26035KT FM230900 22011G18KT P6SM FEW250 FM231700 22014G25KT P6SM FEW250 FM240000 20011G22KT P6SM FEW200 FM240300 21016G29KT P6SM SCT120

Feb-23@
06:00 UTC

Feb-23 @ 06:00 UTC

Feb-23@
09:00 UTC

Feb-23 @ 09:00 UTC

KIAG 230528Z 2306/2406 22011KT P6SM SKC WS020/26035KT
Wind
  • 220° at 11 KTS
Cloud Levels
  • Clear skies

Feb-23@
09:00 UTC

Feb-23 @ 09:00 UTC

Feb-23@
17:00 UTC

Feb-23 @ 17:00 UTC

FM230900 22011G18KT P6SM FEW250

From

From Standard forecast or significant change

Wind
  • 220° at 11 KTS
  • {Gusting to 18 KTS
Cloud Levels
  • Few at 25,000' AGL

Feb-23@
17:00 UTC

Feb-23 @ 17:00 UTC

Feb-24@
00:00 UTC

Feb-24 @ 00:00 UTC

FM231700 22014G25KT P6SM FEW250

From

From Standard forecast or significant change

Wind
  • 220° at 14 KTS
  • {Gusting to 25 KTS
Cloud Levels
  • Few at 25,000' AGL

Feb-24@
00:00 UTC

Feb-24 @ 00:00 UTC

Feb-24@
03:00 UTC

Feb-24 @ 03:00 UTC

FM240000 20011G22KT P6SM FEW200

From

From Standard forecast or significant change

Wind
  • 200° at 11 KTS
  • {Gusting to 22 KTS
Cloud Levels
  • Few at 20,000' AGL

Feb-24@
03:00 UTC

Feb-24 @ 03:00 UTC

Feb-24@
06:00 UTC

Feb-24 @ 06:00 UTC

FM240300 21016G29KT P6SM SCT120

From

From Standard forecast or significant change

Wind
  • 210° at 16 KTS
  • {Gusting to 29 KTS
Cloud Levels
  • Scattered at 12,000' AGL